createdAt,value
2022-09-15T00:06:27.206Z,19.50
2022-09-15T00:08:57.779Z,19.30
2022-09-15T00:11:26.917Z,19.20
2022-09-15T00:13:56.216Z,19.30
2022-09-15T00:16:25.301Z,19.40
2022-09-15T00:18:54.049Z,19.40
2022-09-15T00:21:23.182Z,19.30
2022-09-15T00:23:51.840Z,19.10
2022-09-15T00:31:26.305Z,18.90
2022-09-15T00:33:56.270Z,18.70
2022-09-15T00:36:25.669Z,18.70
2022-09-15T00:38:53.350Z,18.80
2022-09-15T00:41:22.020Z,18.90
2022-09-15T00:43:52.122Z,18.80
2022-09-15T00:46:22.171Z,18.60
2022-09-15T00:51:37.995Z,18.50
2022-09-15T00:54:09.187Z,18.80
2022-09-15T00:56:38.470Z,18.80
2022-09-15T00:59:09.356Z,18.80
2022-09-15T01:01:36.692Z,18.60
2022-09-15T01:04:04.204Z,18.60
2022-09-15T01:06:39.484Z,18.50
2022-09-15T01:11:47.625Z,18.40
2022-09-15T01:14:14.774Z,18.30
2022-09-15T01:16:53.246Z,18.10
2022-09-15T01:19:43.446Z,17.90
2022-09-15T01:22:23.886Z,17.70
2022-09-15T01:25:06.805Z,17.80
2022-09-15T01:28:25.455Z,17.90
2022-09-15T01:36:05.799Z,18.20
2022-09-15T01:38:49.737Z,17.90
2022-09-15T01:41:19.106Z,17.80
2022-09-15T01:43:51.723Z,17.80
2022-09-15T01:46:21.944Z,17.80
2022-09-15T01:48:54.098Z,17.60
2022-09-15T01:51:24.654Z,17.70
2022-09-15T01:53:53.647Z,17.80
2022-09-15T01:59:11.126Z,17.90
2022-09-15T02:01:44.961Z,17.50
2022-09-15T02:04:17.481Z,17.60
2022-09-15T02:06:51.543Z,17.50
2022-09-15T02:09:23.217Z,17.50
2022-09-15T02:12:07.314Z,17.60
2022-09-15T02:14:48.884Z,17.60
2022-09-15T02:17:19.578Z,17.50
2022-09-15T02:24:58.238Z,17.70
2022-09-15T02:27:30.374Z,17.50
2022-09-15T02:30:07.079Z,17.50
2022-09-15T02:32:37.009Z,17.50
2022-09-15T02:35:08.119Z,17.70
2022-09-15T02:37:37.426Z,17.70
2022-09-15T02:40:08.304Z,17.40
2022-09-15T02:47:25.779Z,17.00
2022-09-15T02:49:53.557Z,17.30
2022-09-15T02:52:21.475Z,17.30
2022-09-15T02:54:49.446Z,17.30
2022-09-15T02:57:16.924Z,17.30
2022-09-15T03:00:07.608Z,16.80
2022-09-15T03:02:36.385Z,16.80
2022-09-15T03:07:44.696Z,16.90
2022-09-15T03:10:13.146Z,16.90
2022-09-15T03:12:41.835Z,16.60
2022-09-15T03:15:11.184Z,16.50
2022-09-15T03:17:41.520Z,16.50
2022-09-15T03:20:11.373Z,16.40
2022-09-15T03:22:39.206Z,16.50
2022-09-15T03:25:09.984Z,16.60
2022-09-15T03:32:44.015Z,16.70
2022-09-15T03:35:11.482Z,16.50
2022-09-15T03:37:38.907Z,16.50
2022-09-15T03:40:07.961Z,16.60
2022-09-15T03:42:35.209Z,16.50
2022-09-15T03:45:03.276Z,16.40
2022-09-15T03:47:30.636Z,16.10
2022-09-15T03:53:05.069Z,16.00
2022-09-15T03:55:32.736Z,15.70
2022-09-15T03:58:00.276Z,15.60
2022-09-15T04:00:27.728Z,15.30
2022-09-15T04:02:55.096Z,15.40
2022-09-15T04:05:22.878Z,15.40
2022-09-15T04:07:51.086Z,15.40
2022-09-15T04:10:20.004Z,15.40
2022-09-15T04:17:52.125Z,15.20
2022-09-15T04:20:19.774Z,15.30
2022-09-15T04:22:48.264Z,15.00
2022-09-15T04:25:15.616Z,15.20
2022-09-15T04:27:42.954Z,15.30
2022-09-15T04:30:12.048Z,15.20
2022-09-15T04:32:39.314Z,15.00
2022-09-15T04:40:12.014Z,15.30
2022-09-15T04:42:39.482Z,15.00
2022-09-15T04:45:07.727Z,14.90
2022-09-15T04:47:35.316Z,14.80
2022-09-15T04:50:03.298Z,14.50
2022-09-15T04:52:31.537Z,14.50
2022-09-15T04:54:59.594Z,14.60
2022-09-15T04:57:31.238Z,14.50
2022-09-15T05:02:42.567Z,14.50
2022-09-15T05:05:10.536Z,14.40
2022-09-15T05:07:37.849Z,14.50
2022-09-15T05:10:06.066Z,14.50
2022-09-15T05:12:33.484Z,14.50
2022-09-15T05:15:00.794Z,14.40
2022-09-15T05:17:30.972Z,14.30
2022-09-15T05:22:39.501Z,14.30
2022-09-15T05:25:09.984Z,14.50
2022-09-15T05:27:38.783Z,14.40
2022-09-15T05:30:34.846Z,14.30
2022-09-15T05:32:55.786Z,14.20
2022-09-15T05:35:24.238Z,14.30
2022-09-15T05:37:53.256Z,14.20
2022-09-15T05:48:22.494Z,14.10
2022-09-15T05:50:51.207Z,14.00
2022-09-15T05:53:20.134Z,13.80
2022-09-15T05:55:48.747Z,13.70
2022-09-15T05:58:16.796Z,13.70
2022-09-15T06:00:45.046Z,13.70
2022-09-15T06:03:14.869Z,13.80
2022-09-15T06:13:45.864Z,13.90
2022-09-15T06:16:15.071Z,13.60
2022-09-15T06:18:43.596Z,13.70
2022-09-15T06:21:12.307Z,13.60
2022-09-15T06:23:41.564Z,13.50
2022-09-15T06:26:11.687Z,13.50
2022-09-15T06:28:40.253Z,13.60
2022-09-15T06:31:11.598Z,13.40
2022-09-15T06:33:42.924Z,13.60
2022-09-15T06:41:11.517Z,13.70
2022-09-15T06:43:39.527Z,13.90
2022-09-15T06:46:09.396Z,14.10
2022-09-15T06:48:37.552Z,13.90
2022-09-15T06:51:06.857Z,13.80
2022-09-15T06:53:37.724Z,13.80
2022-09-15T06:56:07.037Z,13.90
2022-09-15T06:58:37.715Z,14.00
2022-09-15T07:03:53.080Z,14.10
2022-09-15T07:06:21.639Z,14.50
2022-09-15T07:08:49.917Z,14.40
2022-09-15T07:11:18.310Z,14.50
2022-09-15T07:13:46.087Z,14.50
2022-09-15T07:16:14.023Z,14.50
2022-09-15T07:18:43.579Z,14.50
2022-09-15T07:21:15.087Z,14.50
2022-09-15T07:30:54.121Z,14.70
2022-09-15T07:33:21.915Z,14.80
2022-09-15T07:35:49.221Z,14.70
2022-09-15T07:38:16.648Z,14.90
2022-09-15T07:40:45.624Z,14.90
2022-09-15T07:43:12.865Z,14.90
2022-09-15T07:45:40.432Z,14.90
2022-09-15T07:48:08.661Z,14.70
2022-09-15T07:53:20.037Z,14.60
2022-09-15T07:55:51.917Z,14.60
2022-09-15T07:58:20.115Z,14.70
2022-09-15T08:00:48.328Z,14.60
2022-09-15T08:03:16.044Z,14.70
2022-09-15T08:05:45.567Z,14.70
2022-09-15T08:08:13.521Z,14.50
2022-09-15T08:10:42.064Z,14.40
2022-09-15T08:15:51.629Z,14.50
2022-09-15T08:18:19.435Z,14.60
2022-09-15T08:20:46.845Z,14.60
2022-09-15T08:23:14.349Z,14.70
2022-09-15T08:25:42.039Z,14.90
2022-09-15T08:28:09.360Z,15.10
2022-09-15T08:30:37.286Z,15.40
2022-09-15T08:33:05.626Z,15.40
2022-09-15T08:35:33.855Z,15.80
2022-09-15T08:53:32.774Z,15.50
2022-09-15T08:56:04.006Z,15.40
2022-09-15T08:58:37.154Z,15.50
2022-09-15T09:01:14.285Z,15.50
2022-09-15T09:03:55.027Z,15.80
2022-09-15T09:06:34.644Z,16.00
2022-09-15T09:15:24.214Z,15.70
2022-09-15T09:18:16.107Z,15.60
2022-09-15T09:20:52.246Z,15.30
2022-09-15T09:23:25.715Z,15.60
2022-09-15T09:25:55.444Z,15.70
2022-09-15T09:28:31.520Z,16.00
2022-09-15T09:31:05.998Z,16.30
2022-09-15T09:36:27.967Z,16.30
2022-09-15T09:38:58.034Z,16.00
2022-09-15T09:41:35.087Z,16.00
2022-09-15T09:44:09.414Z,16.10
2022-09-15T09:46:36.645Z,15.90
2022-09-15T09:49:11.214Z,16.30
2022-09-15T09:51:47.904Z,16.40
2022-09-15T09:58:40.107Z,16.40
2022-09-15T10:01:11.063Z,16.20
2022-09-15T10:03:38.864Z,16.40
2022-09-15T10:06:11.786Z,16.40
2022-09-15T10:08:52.450Z,16.20
2022-09-15T10:11:20.176Z,16.30
2022-09-15T10:13:53.264Z,16.00
2022-09-15T10:21:26.674Z,15.90
2022-09-15T10:23:54.104Z,15.80
2022-09-15T10:26:32.514Z,16.00
2022-09-15T10:29:15.476Z,16.00
2022-09-15T10:31:44.685Z,16.00
2022-09-15T10:34:27.166Z,15.80
2022-09-15T10:42:11.154Z,16.20
2022-09-15T10:44:48.727Z,16.20
2022-09-15T10:47:28.695Z,16.20
2022-09-15T10:50:12.805Z,16.20
2022-09-15T10:53:06.912Z,16.50
2022-09-15T10:55:52.675Z,16.70
2022-09-15T11:03:55.705Z,17.10
2022-09-15T11:06:29.984Z,17.00
2022-09-15T11:09:16.446Z,16.70
2022-09-15T11:12:05.064Z,16.70
2022-09-15T11:14:57.779Z,16.90
2022-09-15T11:17:40.335Z,16.80
2022-09-15T11:25:21.562Z,16.90
2022-09-15T11:27:54.649Z,17.30
2022-09-15T11:30:24.225Z,17.10
2022-09-15T11:32:58.792Z,17.40
2022-09-15T11:35:38.864Z,17.30
2022-09-15T11:38:20.103Z,17.20
2022-09-15T11:46:36.540Z,17.20
2022-09-15T11:49:08.394Z,17.20
2022-09-15T11:51:42.815Z,17.10
2022-09-15T11:54:18.236Z,16.80
2022-09-15T11:56:47.257Z,16.70
2022-09-15T11:59:25.827Z,16.70
2022-09-15T12:07:32.326Z,16.80
2022-09-15T12:10:07.767Z,17.00
2022-09-15T12:12:36.674Z,17.10
2022-09-15T12:15:04.395Z,16.90
2022-09-15T12:17:40.674Z,16.70
2022-09-15T12:20:19.339Z,16.80
2022-09-15T12:22:57.681Z,16.80
2022-09-15T12:30:42.169Z,17.20
2022-09-15T12:33:46.806Z,17.30
2022-09-15T12:36:43.676Z,17.40
2022-09-15T12:39:29.316Z,17.50
2022-09-15T12:42:19.848Z,17.20
2022-09-15T12:44:53.739Z,17.10
2022-09-15T12:50:32.969Z,16.40
2022-09-15T12:53:02.965Z,16.50
2022-09-15T12:55:34.874Z,16.60
2022-09-15T12:58:08.844Z,16.80
2022-09-15T13:00:45.528Z,17.00
2022-09-15T13:03:53.050Z,17.20
2022-09-15T13:06:50.958Z,17.00
2022-09-15T13:11:58.251Z,16.80
2022-09-15T13:14:33.404Z,16.70
2022-09-15T13:17:07.677Z,16.70
2022-09-15T13:19:43.539Z,17.00
2022-09-15T13:22:20.085Z,17.20
2022-09-15T13:24:54.522Z,17.60
2022-09-15T13:27:33.054Z,18.00
2022-09-15T13:38:29.140Z,17.50
2022-09-15T13:41:42.304Z,17.40
2022-09-15T13:44:57.804Z,17.00
2022-09-15T13:47:40.227Z,17.10
2022-09-15T13:50:15.055Z,17.30
2022-09-15T13:56:13.776Z,17.40
2022-09-15T13:59:14.239Z,17.20
2022-09-15T14:01:34.653Z,17.10
2022-09-15T14:04:06.059Z,17.40
2022-09-15T14:06:37.638Z,17.00
2022-09-15T14:09:13.059Z,16.90
2022-09-15T14:11:43.699Z,17.00
2022-09-15T14:19:34.027Z,16.90
2022-09-15T14:22:02.476Z,16.70
2022-09-15T14:24:31.987Z,16.70
2022-09-15T14:27:03.216Z,16.70
2022-09-15T14:29:33.584Z,16.80
2022-09-15T14:32:04.300Z,16.90
2022-09-15T14:34:36.982Z,16.80
2022-09-15T14:39:50.914Z,16.80
2022-09-15T14:42:22.825Z,16.90
2022-09-15T14:47:39.965Z,16.90
2022-09-15T14:50:10.256Z,17.10
2022-09-15T14:52:41.279Z,17.20
2022-09-15T14:55:15.858Z,17.00
2022-09-15T15:06:02.874Z,16.50
2022-09-15T15:08:44.464Z,16.70
2022-09-15T15:11:18.597Z,16.60
2022-09-15T15:13:50.548Z,16.50
2022-09-15T15:16:23.445Z,16.50
2022-09-15T15:18:53.172Z,16.30
2022-09-15T15:28:39.014Z,16.50
2022-09-15T15:31:12.607Z,16.70
2022-09-15T15:33:48.634Z,16.80
2022-09-15T15:36:21.237Z,17.00
2022-09-15T15:38:53.064Z,16.90
2022-09-15T15:41:24.266Z,17.00
2022-09-15T15:44:07.663Z,16.90
2022-09-15T15:51:56.467Z,17.30
2022-09-15T15:54:24.862Z,16.90
2022-09-15T15:56:52.974Z,17.00
2022-09-15T15:59:21.787Z,16.80
2022-09-15T16:01:52.917Z,17.00
2022-09-15T16:04:21.263Z,17.20
2022-09-15T16:06:48.776Z,17.40
2022-09-15T16:11:58.867Z,17.20
2022-09-15T16:14:26.265Z,17.10
2022-09-15T16:16:59.215Z,17.30
2022-09-15T16:19:27.626Z,17.10
2022-09-15T16:21:56.095Z,17.10
2022-09-15T16:24:24.596Z,17.10
2022-09-15T16:26:53.916Z,17.10
2022-09-15T16:32:47.218Z,17.10
2022-09-15T16:35:23.434Z,17.20
2022-09-15T16:37:52.184Z,17.00
2022-09-15T16:40:21.238Z,17.10
2022-09-15T16:42:49.396Z,17.30
2022-09-15T16:45:23.825Z,17.60
2022-09-15T16:47:53.336Z,17.80
2022-09-15T16:55:43.249Z,17.70
2022-09-15T16:58:12.697Z,17.80
2022-09-15T17:00:40.754Z,17.80
2022-09-15T17:03:09.274Z,17.90
2022-09-15T17:05:42.212Z,17.80
2022-09-15T17:08:12.137Z,17.50
2022-09-15T17:10:42.307Z,17.50
2022-09-15T17:16:39.138Z,17.60
2022-09-15T17:19:06.975Z,17.40
2022-09-15T17:21:36.134Z,17.00
2022-09-15T17:24:09.289Z,16.80
2022-09-15T17:26:40.080Z,16.70
2022-09-15T17:29:15.144Z,16.40
2022-09-15T17:31:46.428Z,16.30
2022-09-15T17:34:17.416Z,16.20
2022-09-15T17:41:51.141Z,15.90
2022-09-15T17:44:22.831Z,15.50
2022-09-15T17:46:53.903Z,15.40
2022-09-15T17:49:22.451Z,15.10
2022-09-15T17:51:53.704Z,15.20
2022-09-15T17:54:24.785Z,15.20
2022-09-15T17:56:54.307Z,15.10
2022-09-15T18:07:34.354Z,15.30
2022-09-15T18:10:02.127Z,15.50
2022-09-15T18:12:30.255Z,15.60
2022-09-15T18:14:58.357Z,15.70
2022-09-15T18:17:27.234Z,15.80
2022-09-15T18:19:55.405Z,15.80
2022-09-15T18:22:26.795Z,15.60
2022-09-15T18:28:09.635Z,15.80
2022-09-15T18:30:44.257Z,15.70
2022-09-15T18:33:15.545Z,15.60
2022-09-15T18:35:44.936Z,15.40
2022-09-15T18:38:12.676Z,15.50
2022-09-15T18:40:45.057Z,15.50
2022-09-15T18:43:16.176Z,15.30
2022-09-15T18:50:53.274Z,15.30
2022-09-15T18:53:24.166Z,15.00
2022-09-15T18:55:51.939Z,15.10
2022-09-15T18:58:19.484Z,15.30
2022-09-15T19:00:48.499Z,15.30
2022-09-15T19:03:32.886Z,15.30
2022-09-15T19:06:08.974Z,15.30
2022-09-15T19:13:41.266Z,15.30
2022-09-15T19:16:11.825Z,15.10
2022-09-15T19:18:40.034Z,15.00
2022-09-15T19:21:10.406Z,14.80
2022-09-15T19:23:41.705Z,14.90
2022-09-15T19:26:13.686Z,14.90
2022-09-15T19:28:44.025Z,15.20
2022-09-15T19:31:14.318Z,15.00
2022-09-15T19:38:50.087Z,14.90
2022-09-15T19:41:18.567Z,14.90
2022-09-15T19:43:48.136Z,14.90
2022-09-15T19:46:19.974Z,14.80
2022-09-15T19:48:50.526Z,15.00
2022-09-15T19:51:19.654Z,15.00
2022-09-15T19:53:48.506Z,14.90
2022-09-15T20:01:22.142Z,14.60
2022-09-15T20:03:50.327Z,14.70
2022-09-15T20:06:18.347Z,14.70
2022-09-15T20:08:46.784Z,14.50
2022-09-15T20:11:17.036Z,14.30
2022-09-15T20:13:45.832Z,14.20
2022-09-15T20:16:19.587Z,14.20
2022-09-15T20:18:51.139Z,14.40
2022-09-15T20:26:19.836Z,14.40
2022-09-15T20:28:48.104Z,14.40
2022-09-15T20:31:17.644Z,14.40
2022-09-15T20:33:47.287Z,14.30
2022-09-15T20:36:16.969Z,14.20
2022-09-15T20:38:46.573Z,14.20
2022-09-15T20:41:15.686Z,14.20
2022-09-15T20:43:45.135Z,14.50
2022-09-15T20:51:18.247Z,14.30
2022-09-15T20:53:48.504Z,14.40
2022-09-15T20:56:17.616Z,14.40
2022-09-15T20:58:44.804Z,14.40
2022-09-15T21:01:15.680Z,14.50
2022-09-15T21:03:44.745Z,14.60
2022-09-15T21:06:14.196Z,14.60
2022-09-15T21:14:17.684Z,14.60
2022-09-15T21:16:45.352Z,14.50
2022-09-15T21:19:16.220Z,14.40
2022-09-15T21:21:43.887Z,14.40
2022-09-15T21:24:11.915Z,14.60
2022-09-15T21:27:01.178Z,14.70
2022-09-15T21:29:30.714Z,14.50
2022-09-15T21:39:45.940Z,14.40
2022-09-15T21:42:14.339Z,14.20
2022-09-15T21:44:41.537Z,14.20
2022-09-15T21:47:08.724Z,14.30
2022-09-15T21:49:36.325Z,14.30
2022-09-15T21:52:04.806Z,14.30
2022-09-15T21:54:32.226Z,14.30
2022-09-15T21:57:01.192Z,14.50
2022-09-15T22:04:35.169Z,14.30
2022-09-15T22:07:04.138Z,14.20
2022-09-15T22:09:32.329Z,14.30
2022-09-15T22:11:59.506Z,14.20
2022-09-15T22:14:26.637Z,14.50
2022-09-15T22:16:54.556Z,14.30
2022-09-15T22:19:21.976Z,14.30
2022-09-15T22:21:50.325Z,14.20
2022-09-15T22:29:22.586Z,14.20
2022-09-15T22:31:49.938Z,14.00
2022-09-15T22:34:17.315Z,14.00
2022-09-15T22:36:44.603Z,14.20
2022-09-15T22:39:12.896Z,14.00
2022-09-15T22:41:40.965Z,13.80
2022-09-15T22:44:18.886Z,14.00
2022-09-15T22:46:49.185Z,14.00
2022-09-15T22:54:19.637Z,13.80
2022-09-15T22:56:47.210Z,13.70
2022-09-15T22:59:14.775Z,13.60
2022-09-15T23:01:42.211Z,13.90
2022-09-15T23:04:09.745Z,13.80
2022-09-15T23:06:37.794Z,13.50
2022-09-15T23:09:11.586Z,13.60
2022-09-15T23:11:42.275Z,13.80
2022-09-15T23:21:35.027Z,13.80
2022-09-15T23:24:03.021Z,13.70
2022-09-15T23:26:30.697Z,13.80
2022-09-15T23:29:00.111Z,13.80
2022-09-15T23:31:34.553Z,13.70
2022-09-15T23:34:04.933Z,13.70
2022-09-15T23:36:32.386Z,13.70
2022-09-15T23:44:05.297Z,13.50
2022-09-15T23:46:33.223Z,13.70
2022-09-15T23:49:01.098Z,13.80
2022-09-15T23:51:28.478Z,14.00
2022-09-15T23:53:58.654Z,13.80
2022-09-15T23:56:25.795Z,13.90
2022-09-15T23:58:53.906Z,13.70
